createdAt,value
2018-02-11T00:00:14.732Z,82.82
2018-02-11T00:02:42.235Z,74.65
2018-02-11T00:05:09.941Z,70.20
2018-02-11T00:07:37.451Z,71.78
2018-02-11T00:10:04.962Z,80.70
2018-02-11T00:12:32.458Z,79.28
2018-02-11T00:14:59.960Z,81.43
2018-02-11T00:17:28.231Z,75.72
2018-02-11T00:19:56.511Z,79.18
2018-02-11T00:22:24.780Z,81.80
2018-02-11T00:24:53.050Z,94.40
2018-02-11T00:27:21.326Z,83.55
2018-02-11T00:29:49.593Z,84.78
2018-02-11T00:32:17.974Z,78.30
2018-02-11T00:34:45.576Z,79.70
2018-02-11T00:37:13.073Z,85.78
2018-02-11T00:39:40.573Z,82.57
2018-02-11T00:42:08.831Z,81.47
2018-02-11T00:44:36.326Z,84.15
2018-02-11T00:47:03.823Z,85.12
2018-02-11T00:49:31.330Z,82.35
2018-02-11T00:51:58.838Z,80.65
2018-02-11T00:54:26.326Z,81.72
2018-02-11T00:56:54.582Z,84.82
2018-02-11T00:59:22.266Z,80.87
2018-02-11T01:01:50.523Z,81.28
2018-02-11T01:04:18.026Z,83.20
2018-02-11T01:06:45.522Z,83.80
2018-02-11T01:09:13.055Z,82.75
2018-02-11T01:11:40.548Z,84.40
2018-02-11T01:14:08.051Z,86.85
2018-02-11T01:16:35.542Z,81.55
2018-02-11T01:19:03.046Z,83.57
2018-02-11T01:21:31.306Z,83.47
2018-02-11T01:23:58.930Z,81.03
2018-02-11T01:26:26.422Z,91.85
2018-02-11T01:28:53.922Z,86.80
2018-02-11T01:31:21.430Z,80.35
2018-02-11T01:33:48.936Z,78.05
2018-02-11T01:36:16.590Z,87.97
2018-02-11T01:38:44.854Z,77.87
2018-02-11T01:41:13.117Z,78.68
2018-02-11T01:43:40.623Z,85.60
2018-02-11T01:46:08.119Z,86.63
2018-02-11T01:48:35.616Z,81.65
2018-02-11T01:51:03.875Z,84.87
2018-02-11T01:53:31.529Z,78.47
2018-02-11T01:55:59.010Z,83.35
2018-02-11T01:58:27.266Z,82.03
2018-02-11T02:00:54.768Z,83.43
2018-02-11T02:03:22.269Z,83.20
2018-02-11T02:05:49.763Z,71.70
2018-02-11T02:08:18.026Z,83.50
2018-02-11T02:10:46.293Z,78.90
2018-02-11T02:13:13.800Z,86.55
2018-02-11T02:15:41.292Z,80.68
2018-02-11T02:18:08.778Z,80.87
2018-02-11T02:20:37.038Z,83.97
2018-02-11T02:23:04.526Z,83.10
2018-02-11T02:25:32.018Z,80.22
2018-02-11T02:27:59.510Z,83.00
2018-02-11T02:30:27.005Z,78.05
2018-02-11T02:32:54.507Z,79.15
2018-02-11T02:35:22.210Z,82.75
2018-02-11T02:37:50.473Z,85.10
2018-02-11T02:40:17.972Z,75.97
2018-02-11T02:42:45.502Z,73.70
2018-02-11T02:45:13.983Z,80.87
2018-02-11T02:47:42.246Z,85.00
2018-02-11T02:50:09.746Z,80.53
2018-02-11T02:52:37.255Z,82.10
2018-02-11T02:55:04.935Z,75.90
2018-02-11T02:57:33.190Z,80.30
2018-02-11T03:00:00.682Z,82.37
2018-02-11T03:05:03.654Z,76.80
2018-02-11T03:07:31.926Z,70.25
2018-02-11T03:09:59.427Z,77.53
2018-02-11T03:12:26.931Z,78.18
2018-02-11T03:14:54.422Z,72.60
2018-02-11T03:17:22.681Z,70.43
2018-02-11T03:19:50.377Z,65.07
2018-02-11T03:22:18.635Z,69.95
2018-02-11T03:24:47.124Z,70.47
2018-02-11T03:27:15.384Z,65.55
2018-02-11T03:29:42.876Z,62.20
2018-02-11T03:32:10.371Z,66.55
2018-02-11T03:34:37.862Z,61.17
2018-02-11T03:37:05.517Z,70.20
2018-02-11T03:39:32.982Z,68.10
2018-02-11T03:42:00.658Z,67.55
2018-02-11T03:44:28.925Z,62.10
2018-02-11T03:46:57.199Z,65.35
2018-02-11T03:49:25.462Z,64.10
2018-02-11T03:51:54.475Z,65.43
2018-02-11T03:54:22.138Z,76.93
2018-02-11T03:56:50.619Z,73.45
2018-02-11T03:59:18.886Z,64.50
2018-02-11T04:01:47.159Z,69.30
2018-02-11T04:04:14.658Z,66.80
2018-02-11T04:06:42.156Z,67.35
2018-02-11T04:09:09.658Z,70.05
2018-02-11T04:11:37.158Z,67.05
2018-02-11T04:14:04.654Z,67.80
2018-02-11T04:16:32.923Z,67.35
2018-02-11T04:19:00.410Z,58.78
2018-02-11T04:21:27.910Z,62.40
2018-02-11T04:23:55.414Z,66.10
2018-02-11T04:26:23.679Z,73.47
2018-02-11T04:28:51.966Z,66.80
2018-02-11T04:31:20.434Z,65.40
2018-02-11T04:33:47.922Z,70.87
2018-02-11T04:36:15.414Z,68.80
2018-02-11T04:38:42.915Z,71.87
2018-02-11T04:41:11.171Z,60.83
2018-02-11T04:43:38.666Z,64.28
2018-02-11T04:46:06.166Z,62.42
2018-02-11T04:48:33.662Z,64.62
2018-02-11T04:51:01.923Z,67.25
2018-02-11T04:53:29.422Z,63.65
2018-02-11T04:55:56.918Z,63.05
2018-02-11T04:58:24.411Z,62.53
2018-02-11T05:00:52.683Z,69.25
2018-02-11T05:03:20.180Z,61.45
2018-02-11T05:05:47.674Z,67.97
2018-02-11T05:08:15.178Z,66.45
2018-02-11T05:10:43.438Z,61.97
2018-02-11T05:13:11.822Z,64.35
2018-02-11T05:15:40.082Z,70.30
2018-02-11T05:18:07.574Z,58.72
2018-02-11T05:20:35.067Z,65.12
2018-02-11T05:23:02.559Z,63.58
2018-02-11T05:25:30.230Z,61.85
2018-02-11T05:27:58.490Z,60.97
2018-02-11T05:30:26.178Z,58.00
2018-02-11T05:32:54.434Z,60.58
2018-02-11T05:35:21.938Z,60.63
2018-02-11T05:37:49.570Z,67.72
2018-02-11T05:40:17.842Z,58.17
2018-02-11T05:42:46.098Z,59.70
2018-02-11T05:45:13.604Z,61.17
2018-02-11T05:47:41.106Z,61.37
2018-02-11T05:50:08.715Z,58.83
2018-02-11T05:52:36.215Z,60.08
2018-02-11T05:55:03.719Z,59.42
2018-02-11T05:57:31.981Z,57.97
2018-02-11T05:59:59.604Z,63.90
2018-02-11T06:02:27.102Z,56.42
2018-02-11T06:04:55.391Z,65.55
2018-02-11T06:07:23.646Z,54.75
2018-02-11T06:09:51.159Z,57.92
2018-02-11T06:12:18.651Z,62.58
2018-02-11T06:14:46.146Z,63.13
2018-02-11T06:17:14.619Z,60.65
2018-02-11T06:19:42.883Z,59.97
2018-02-11T06:22:10.381Z,61.42
2018-02-11T06:24:37.890Z,59.70
2018-02-11T06:27:05.391Z,63.60
2018-02-11T06:29:32.995Z,62.28
2018-02-11T06:32:00.495Z,62.88
2018-02-11T06:34:28.971Z,64.90
2018-02-11T06:36:57.230Z,57.62
2018-02-11T06:39:24.735Z,51.85
2018-02-11T06:41:52.363Z,55.53
2018-02-11T06:44:20.630Z,65.60
2018-02-11T06:46:48.127Z,63.35
2018-02-11T06:49:15.622Z,63.67
2018-02-11T06:51:43.142Z,60.75
2018-02-11T06:54:10.647Z,70.62
2018-02-11T06:56:38.142Z,57.20
2018-02-11T06:59:05.642Z,62.90
2018-02-11T07:01:33.150Z,56.53
2018-02-11T07:04:01.422Z,61.67
2018-02-11T07:06:29.686Z,58.55
2018-02-11T07:08:57.190Z,58.33
2018-02-11T07:11:24.690Z,68.55
2018-02-11T07:13:52.175Z,65.93
2018-02-11T07:16:20.435Z,61.70
2018-02-11T07:18:48.107Z,59.65
2018-02-11T07:21:16.370Z,64.70
2018-02-11T07:23:43.875Z,60.67
2018-02-11T07:26:11.405Z,60.15
2018-02-11T07:28:39.666Z,62.92
2018-02-11T07:31:07.166Z,56.42
2018-02-11T07:33:34.686Z,63.22
2018-02-11T07:36:02.327Z,60.30
2018-02-11T07:38:29.821Z,71.47
2018-02-11T07:40:58.094Z,65.32
2018-02-11T07:43:26.574Z,58.75
2018-02-11T07:45:54.849Z,66.57
2018-02-11T07:48:23.112Z,68.97
2018-02-11T07:50:50.603Z,67.47
2018-02-11T07:53:18.111Z,67.68
2018-02-11T07:55:45.615Z,65.35
2018-02-11T07:58:13.115Z,60.47
2018-02-11T08:00:40.827Z,59.88
2018-02-11T08:03:09.107Z,61.08
2018-02-11T08:05:37.366Z,62.35
2018-02-11T08:08:05.638Z,58.60
2018-02-11T08:10:33.127Z,63.97
2018-02-11T08:13:00.627Z,61.65
2018-02-11T08:15:28.133Z,61.63
2018-02-11T08:17:55.638Z,58.05
2018-02-11T08:20:23.142Z,56.83
2018-02-11T08:22:51.419Z,55.30
2018-02-11T08:25:19.683Z,58.92
2018-02-11T08:27:47.172Z,60.22
2018-02-11T08:30:14.682Z,58.80
2018-02-11T08:32:42.174Z,48.83
2018-02-11T08:35:10.435Z,53.15
2018-02-11T08:37:38.694Z,51.20
2018-02-11T08:40:06.201Z,52.35
2018-02-11T08:42:33.696Z,46.60
2018-02-11T08:45:01.199Z,51.65
2018-02-11T08:47:29.463Z,47.17
2018-02-11T08:49:57.722Z,50.25
2018-02-11T08:52:25.219Z,51.25
2018-02-11T08:54:52.738Z,48.78
2018-02-11T08:57:20.254Z,53.92
2018-02-11T08:59:47.886Z,47.80
2018-02-11T09:02:16.146Z,51.47
2018-02-11T09:04:43.655Z,46.55
2018-02-11T09:07:11.143Z,53.17
2018-02-11T09:09:38.652Z,53.75
2018-02-11T09:12:06.155Z,52.67
2018-02-11T09:14:33.654Z,54.15
2018-02-11T09:17:01.915Z,58.00
2018-02-11T09:19:30.641Z,53.85
2018-02-11T09:21:58.150Z,53.63
2018-02-11T09:24:25.831Z,52.20
2018-02-11T09:26:54.098Z,59.17
2018-02-11T09:29:21.591Z,53.35
2018-02-11T09:31:49.094Z,58.25
2018-02-11T09:34:17.384Z,61.47
2018-02-11T09:36:44.895Z,74.65
2018-02-11T09:39:12.414Z,72.10
2018-02-11T09:41:40.698Z,58.67
2018-02-11T09:44:08.971Z,56.15
2018-02-11T09:46:37.238Z,58.25
2018-02-11T09:49:05.502Z,64.80
2018-02-11T09:51:33.786Z,56.70
2018-02-11T09:54:01.292Z,59.53
2018-02-11T09:56:28.817Z,65.20
2018-02-11T09:58:57.082Z,59.80
2018-02-11T10:01:24.579Z,66.78
2018-02-11T10:03:52.070Z,66.30
2018-02-11T10:06:19.568Z,68.90
2018-02-11T10:08:47.822Z,69.00
2018-02-11T10:11:15.315Z,64.20
2018-02-11T10:13:42.825Z,71.95
2018-02-11T10:16:10.323Z,75.57
2018-02-11T10:18:38.593Z,68.85
2018-02-11T10:21:07.071Z,69.90
2018-02-11T10:23:35.338Z,66.65
2018-02-11T10:26:02.827Z,58.35
2018-02-11T10:28:30.322Z,53.20
2018-02-11T10:30:57.835Z,50.83
2018-02-11T10:33:26.088Z,55.25
2018-02-11T10:35:53.588Z,60.47
2018-02-11T10:38:21.084Z,93.37
2018-02-11T10:40:48.574Z,90.18
2018-02-11T10:43:16.838Z,130.93
2018-02-11T10:45:44.326Z,52.53
2018-02-11T10:48:11.874Z,52.40
2018-02-11T10:50:39.338Z,52.40
2018-02-11T10:53:06.843Z,47.03
2018-02-11T10:55:34.362Z,46.17
2018-02-11T10:58:01.866Z,49.38
2018-02-11T11:00:29.358Z,49.55
2018-02-11T11:02:57.626Z,47.78
2018-02-11T11:05:25.886Z,50.47
2018-02-11T11:07:53.383Z,46.65
2018-02-11T11:10:20.894Z,50.95
2018-02-11T11:12:48.383Z,45.65
2018-02-11T11:15:16.658Z,40.92
2018-02-11T11:17:44.911Z,47.62
2018-02-11T11:20:12.525Z,44.80
2018-02-11T11:22:40.052Z,48.13
2018-02-11T11:25:08.334Z,49.22
2018-02-11T11:27:36.602Z,47.65
2018-02-11T11:30:04.882Z,50.12
2018-02-11T11:32:33.374Z,46.65
2018-02-11T11:35:01.634Z,48.10
2018-02-11T11:37:29.146Z,42.78
2018-02-11T11:39:56.762Z,41.00
2018-02-11T11:42:25.073Z,41.55
2018-02-11T11:44:52.609Z,41.72
2018-02-11T11:47:20.931Z,39.92
2018-02-11T11:49:48.582Z,38.55
2018-02-11T11:52:16.079Z,38.15
2018-02-11T11:54:43.724Z,49.33
2018-02-11T11:57:11.286Z,42.10
2018-02-11T11:59:38.825Z,39.47
2018-02-11T12:02:06.375Z,34.63
2018-02-11T12:04:33.904Z,32.35
2018-02-11T12:07:02.219Z,35.13
2018-02-11T12:09:29.736Z,33.03
2018-02-11T12:11:57.451Z,30.75
2018-02-11T12:14:24.954Z,31.85
2018-02-11T12:16:53.359Z,32.92
2018-02-11T12:19:20.879Z,29.75
2018-02-11T12:21:48.413Z,34.70
2018-02-11T12:24:15.947Z,31.52
2018-02-11T12:26:43.454Z,29.35
2018-02-11T12:29:11.134Z,31.80
2018-02-11T12:31:39.398Z,29.20
2018-02-11T12:34:07.662Z,29.48
2018-02-11T12:36:35.943Z,26.60
2018-02-11T12:39:03.451Z,23.90
2018-02-11T12:41:30.963Z,23.38
2018-02-11T12:43:58.458Z,25.45
2018-02-11T12:46:25.979Z,27.50
2018-02-11T12:48:54.254Z,23.27
2018-02-11T12:51:22.530Z,22.67
2018-02-11T12:53:50.803Z,24.92
2018-02-11T12:56:18.332Z,25.05
2018-02-11T12:58:45.834Z,25.25
2018-02-11T13:01:14.123Z,21.70
2018-02-11T13:03:41.654Z,24.02
2018-02-11T13:06:09.154Z,26.50
2018-02-11T13:08:36.678Z,23.33
2018-02-11T13:11:05.170Z,25.77
2018-02-11T13:13:33.438Z,24.63
2018-02-11T13:16:01.778Z,21.75
2018-02-11T13:18:29.483Z,22.52
2018-02-11T13:20:57.771Z,25.55
2018-02-11T13:23:25.322Z,24.25
2018-02-11T13:25:52.868Z,23.95
2018-02-11T13:28:21.225Z,24.35
2018-02-11T13:30:48.742Z,24.15
2018-02-11T13:33:16.284Z,22.40
2018-02-11T13:35:43.806Z,21.97
2018-02-11T13:38:11.332Z,22.60
2018-02-11T13:40:38.838Z,22.20
2018-02-11T13:43:06.354Z,23.80
2018-02-11T13:45:33.871Z,23.20
2018-02-11T13:48:02.142Z,22.70
2018-02-11T13:50:30.422Z,21.77
2018-02-11T13:52:58.766Z,22.50
2018-02-11T13:55:26.279Z,24.23
2018-02-11T13:57:53.810Z,23.20
2018-02-11T14:00:23.058Z,24.23
2018-02-11T14:02:50.562Z,23.70
2018-02-11T14:05:18.836Z,23.40
2018-02-11T14:07:46.371Z,23.80
2018-02-11T14:10:13.866Z,25.60
2018-02-11T14:12:42.129Z,24.37
2018-02-11T14:15:09.644Z,23.80
2018-02-11T14:30:29.092Z,22.83
2018-02-11T14:32:56.623Z,24.53
2018-02-11T14:35:25.095Z,25.53
2018-02-11T14:37:53.380Z,29.40
2018-02-11T14:40:21.642Z,29.83
2018-02-11T14:42:49.903Z,29.73
2018-02-11T14:45:18.175Z,29.00
2018-02-11T14:47:46.451Z,27.73
2018-02-11T14:50:14.724Z,28.03
2018-02-11T14:52:42.228Z,28.77
2018-02-11T14:55:09.775Z,29.10
2018-02-11T14:57:38.051Z,28.30
2018-02-11T15:00:06.366Z,27.83
2018-02-11T15:02:33.863Z,29.00
2018-02-11T15:05:01.365Z,29.10
2018-02-11T15:07:29.106Z,27.27
2018-02-11T15:09:57.406Z,27.27
2018-02-11T15:12:24.930Z,27.87
2018-02-11T15:14:52.442Z,29.13
2018-02-11T15:17:19.998Z,26.80
2018-02-11T15:19:47.502Z,26.03
2018-02-11T15:22:15.925Z,27.30
2018-02-11T15:24:43.430Z,27.67
2018-02-11T15:27:10.976Z,26.40
2018-02-11T15:29:38.541Z,29.87
2018-02-11T15:32:06.171Z,25.17
2018-02-11T15:34:33.705Z,27.77
2018-02-11T15:37:01.235Z,26.62
2018-02-11T15:39:28.763Z,27.73
2018-02-11T15:41:56.263Z,26.90
2018-02-11T15:44:24.755Z,28.08
2018-02-11T15:46:53.234Z,29.12
2018-02-11T15:49:22.050Z,24.20
2018-02-11T15:51:50.153Z,26.30
2018-02-11T15:54:17.685Z,27.33
2018-02-11T15:56:45.289Z,34.47
2018-02-11T15:59:12.982Z,26.40
2018-02-11T16:01:41.262Z,25.95
2018-02-11T16:04:08.802Z,25.02
2018-02-11T16:06:37.075Z,27.20
2018-02-11T16:09:04.582Z,26.33
2018-02-11T16:11:32.077Z,29.63
2018-02-11T16:14:00.347Z,30.35
2018-02-11T16:16:27.842Z,28.30
2018-02-11T16:18:56.111Z,28.25
2018-02-11T16:21:24.388Z,26.58
2018-02-11T16:23:52.659Z,29.30
2018-02-11T16:26:20.920Z,29.05
2018-02-11T16:28:48.616Z,26.08
2018-02-11T16:31:16.880Z,27.60
2018-02-11T16:33:45.151Z,26.73
2018-02-11T16:36:13.410Z,25.98
2018-02-11T16:38:41.099Z,27.33
2018-02-11T16:41:09.353Z,30.48
2018-02-11T16:43:36.857Z,29.80
2018-02-11T16:46:04.366Z,25.98
2018-02-11T16:48:31.854Z,27.98
2018-02-11T16:51:00.254Z,31.23
2018-02-11T16:53:27.886Z,31.92
2018-02-11T16:55:56.151Z,29.73
2018-02-11T16:58:24.421Z,29.80
2018-02-11T17:00:52.690Z,27.67
2018-02-11T17:03:20.371Z,30.90
2018-02-11T17:05:48.636Z,28.33
2018-02-11T17:08:16.139Z,26.12
2018-02-11T17:10:43.642Z,28.17
2018-02-11T17:13:11.134Z,26.92
2018-02-11T17:15:39.390Z,29.27
2018-02-11T17:18:06.891Z,22.95
2018-02-11T17:20:34.533Z,32.67
2018-02-11T17:23:02.034Z,26.58
2018-02-11T17:25:29.535Z,27.02
2018-02-11T17:27:57.914Z,29.33
2018-02-11T17:30:26.190Z,30.02
2018-02-11T17:32:54.447Z,33.67
2018-02-11T17:35:21.949Z,27.23
2018-02-11T17:37:49.446Z,30.17
2018-02-11T17:40:16.934Z,39.38
2018-02-11T17:42:45.207Z,29.92
2018-02-11T17:45:12.701Z,31.30
2018-02-11T17:47:40.192Z,28.10
2018-02-11T17:50:07.699Z,27.00
2018-02-11T17:52:35.958Z,24.98
2018-02-11T17:55:03.459Z,22.15
2018-02-11T17:57:30.960Z,24.45
2018-02-11T17:59:58.469Z,24.58
2018-02-11T18:02:25.966Z,30.45
2018-02-11T18:04:53.593Z,29.63
2018-02-11T18:07:21.086Z,28.62
2018-02-11T18:09:48.582Z,26.92
2018-02-11T18:12:16.848Z,27.05
2018-02-11T18:14:45.123Z,27.17
2018-02-11T18:17:13.516Z,27.37
2018-02-11T18:19:41.994Z,26.77
2018-02-11T18:22:10.257Z,31.37
2018-02-11T18:24:37.749Z,30.05
2018-02-11T18:27:05.251Z,31.77
2018-02-11T18:29:32.751Z,35.53
2018-02-11T18:32:01.227Z,35.55
2018-02-11T18:34:29.490Z,33.25
2018-02-11T18:36:57.754Z,26.77
2018-02-11T18:39:25.334Z,30.50
2018-02-11T18:41:53.599Z,30.33
2018-02-11T18:44:21.088Z,35.15
2018-02-11T18:46:48.582Z,27.37
2018-02-11T18:49:16.078Z,33.50
2018-02-11T18:51:44.351Z,30.37
2018-02-11T18:54:11.850Z,30.55
2018-02-11T18:56:39.347Z,28.60
2018-02-11T18:59:06.859Z,28.33
2018-02-11T19:01:35.630Z,28.42
2018-02-11T19:04:04.339Z,31.40
2018-02-11T19:06:34.277Z,26.62
2018-02-11T19:09:03.101Z,32.85
2018-02-11T19:11:30.614Z,40.95
2018-02-11T19:13:58.142Z,35.67
2018-02-11T19:16:26.439Z,31.05
2018-02-11T19:18:53.939Z,36.40
2018-02-11T19:21:21.499Z,33.17
2018-02-11T19:23:49.002Z,32.05
2018-02-11T19:26:16.532Z,26.05
2018-02-11T19:28:44.228Z,31.30
2018-02-11T19:31:11.744Z,27.02
2018-02-11T19:33:40.741Z,28.52
2018-02-11T19:36:09.301Z,26.48
2018-02-11T19:38:40.171Z,33.63
2018-02-11T19:41:10.412Z,36.10
2018-02-11T19:43:40.945Z,36.00
2018-02-11T19:46:08.518Z,35.65
2018-02-11T19:48:36.057Z,30.58
2018-02-11T19:51:04.383Z,31.55
2018-02-11T19:53:31.883Z,28.35
2018-02-11T19:56:01.641Z,32.38
2018-02-11T19:58:29.366Z,31.77
2018-02-11T20:00:57.645Z,35.80
2018-02-11T20:03:25.947Z,29.90
2018-02-11T20:05:55.263Z,32.20
2018-02-11T20:08:23.931Z,31.48
2018-02-11T20:10:52.782Z,34.72
2018-02-11T20:13:22.646Z,33.05
2018-02-11T20:15:50.189Z,30.90
2018-02-11T20:18:17.719Z,32.13
2018-02-11T20:20:45.999Z,29.95
2018-02-11T20:23:14.258Z,31.45
2018-02-11T20:25:42.567Z,37.38
2018-02-11T20:28:10.130Z,32.30
2018-02-11T20:30:37.625Z,27.05
2018-02-11T20:33:05.139Z,24.40
2018-02-11T20:35:32.657Z,23.90
2018-02-11T20:38:00.195Z,22.37
2018-02-11T20:40:27.747Z,23.73
2018-02-11T20:42:55.258Z,25.37
2018-02-11T20:45:23.555Z,23.70
2018-02-11T20:47:51.081Z,22.45
2018-02-11T20:50:18.583Z,24.02
2018-02-11T20:52:48.446Z,22.95
2018-02-11T20:55:17.529Z,21.17
2018-02-11T20:57:46.546Z,18.30
2018-02-11T21:00:15.525Z,25.40
2018-02-11T21:02:44.032Z,18.33
2018-02-11T21:05:12.402Z,22.55
2018-02-11T21:07:42.357Z,23.23
2018-02-11T21:10:12.477Z,23.23
2018-02-11T21:12:40.623Z,23.87
2018-02-11T21:15:10.117Z,22.20
2018-02-11T21:17:40.506Z,26.95
2018-02-11T21:20:10.453Z,24.08
2018-02-11T21:22:37.958Z,21.27
2018-02-11T21:25:06.758Z,22.98
2018-02-11T21:27:37.545Z,29.30
2018-02-11T21:30:07.111Z,27.65
2018-02-11T21:32:36.103Z,24.00
2018-02-11T21:35:04.080Z,22.23
2018-02-11T21:37:33.532Z,23.70
2018-02-11T21:40:01.803Z,19.23
2018-02-11T21:42:30.063Z,24.05
2018-02-11T21:44:57.746Z,24.67
2018-02-11T21:47:25.402Z,25.73
2018-02-11T21:49:53.675Z,22.40
2018-02-11T21:52:21.934Z,22.92
2018-02-11T21:54:49.549Z,20.50
2018-02-11T21:57:17.054Z,19.20
2018-02-11T21:59:44.538Z,20.50
2018-02-11T22:02:12.042Z,23.10
2018-02-11T22:04:39.534Z,22.40
2018-02-11T22:07:07.198Z,22.13
2018-02-11T22:09:35.462Z,21.50
2018-02-11T22:12:02.967Z,17.48
2018-02-11T22:14:30.477Z,25.58
2018-02-11T22:16:57.966Z,26.83
2018-02-11T22:19:25.515Z,25.35
2018-02-11T22:21:53.786Z,22.33
2018-02-11T22:24:22.059Z,15.93
2018-02-11T22:26:50.350Z,17.77
2018-02-11T22:29:17.824Z,18.77
2018-02-11T22:31:45.314Z,15.48
2018-02-11T22:34:12.811Z,16.83
2018-02-11T22:36:41.069Z,15.68
2018-02-11T22:39:08.575Z,18.75
2018-02-11T22:41:36.082Z,16.65
2018-02-11T22:44:03.574Z,16.40
2018-02-11T22:46:31.830Z,19.60
2018-02-11T22:48:59.506Z,18.00
2018-02-11T22:51:27.767Z,14.98
2018-02-11T22:53:55.263Z,16.17
2018-02-11T22:56:22.763Z,17.62
2018-02-11T22:58:50.255Z,19.02
2018-02-11T23:01:18.530Z,16.20
2018-02-11T23:03:46.792Z,18.77
2018-02-11T23:06:14.283Z,17.10
2018-02-11T23:08:41.783Z,22.05
2018-02-11T23:11:09.290Z,16.05
2018-02-11T23:13:37.546Z,17.70
2018-02-11T23:16:05.045Z,17.92
2018-02-11T23:18:32.678Z,19.05
2018-02-11T23:21:00.942Z,18.92
2018-02-11T23:23:28.444Z,19.23
2018-02-11T23:25:55.961Z,19.37
2018-02-11T23:28:23.475Z,17.95
2018-02-11T23:30:51.094Z,19.12
2018-02-11T23:33:19.360Z,20.17
2018-02-11T23:35:47.620Z,19.77
2018-02-11T23:38:15.130Z,22.02
2018-02-11T23:40:42.649Z,20.23
2018-02-11T23:43:10.909Z,19.92
2018-02-11T23:45:38.411Z,22.90
2018-02-11T23:48:05.914Z,21.27
2018-02-11T23:50:33.409Z,22.40
2018-02-11T23:53:01.674Z,25.20
2018-02-11T23:55:29.171Z,24.12
2018-02-11T23:57:56.666Z,19.33
